createdAt,value
2019-04-01T00:04:36.627Z,52.96
2019-04-01T00:09:31.215Z,51.68
2019-04-01T00:14:25.810Z,50.59
2019-04-01T00:19:20.396Z,50.44
2019-04-01T00:24:15.004Z,50.35
2019-04-01T00:29:09.586Z,49.65
2019-04-01T00:34:04.177Z,49.56
2019-04-01T00:38:58.759Z,49.36
2019-04-01T00:43:55.960Z,49.23
2019-04-01T00:48:50.535Z,49.28
2019-04-01T00:53:45.215Z,49.64
2019-04-01T00:58:39.783Z,49.54
2019-04-01T01:03:34.557Z,50.08
2019-04-01T01:08:29.137Z,50.65
2019-04-01T01:13:23.906Z,51.45
2019-04-01T01:18:18.475Z,51.70
2019-04-01T01:23:13.075Z,52.29
2019-04-01T01:28:07.665Z,52.54
2019-04-01T01:33:02.255Z,52.70
2019-04-01T01:37:56.834Z,53.14
2019-04-01T01:42:51.484Z,53.38
2019-04-01T01:47:47.668Z,53.73
2019-04-01T01:52:42.255Z,54.26
2019-04-01T01:57:36.827Z,54.63
2019-04-01T02:02:31.553Z,55.10
2019-04-01T02:07:26.136Z,55.30
2019-04-01T02:12:20.741Z,55.67
2019-04-01T02:17:15.324Z,55.92
2019-04-01T02:22:10.068Z,56.61
2019-04-01T02:27:04.722Z,57.17
2019-04-01T02:31:59.350Z,57.76
2019-04-01T02:36:53.913Z,58.06
2019-04-01T02:41:48.529Z,57.92
2019-04-01T02:46:43.132Z,58.10
2019-04-01T02:51:37.735Z,58.30
2019-04-01T02:56:32.323Z,58.55
2019-04-01T03:01:26.906Z,59.04
2019-04-01T03:06:21.480Z,59.44
2019-04-01T03:11:16.102Z,59.85
2019-04-01T03:16:10.682Z,60.33
2019-04-01T03:21:05.280Z,60.88
2019-04-01T03:25:59.848Z,61.29
2019-04-01T03:30:54.515Z,62.03
2019-04-01T03:35:49.099Z,62.72
2019-04-01T03:40:43.700Z,63.37
2019-04-01T03:45:38.260Z,63.71
2019-04-01T03:50:32.911Z,64.06
2019-04-01T03:55:27.492Z,63.68
2019-04-01T04:00:22.082Z,64.50
2019-04-01T04:05:16.650Z,64.98
2019-04-01T04:10:11.315Z,64.77
2019-04-01T04:15:07.094Z,65.57
2019-04-01T04:20:01.700Z,66.39
2019-04-01T04:24:56.336Z,67.25
2019-04-01T04:29:50.921Z,67.76
2019-04-01T04:34:45.501Z,68.35
2019-04-01T04:39:40.103Z,68.56
2019-04-01T04:44:34.680Z,68.94
2019-04-01T04:49:29.263Z,69.18
2019-04-01T04:54:23.924Z,70.02
2019-04-01T04:59:19.350Z,70.52
2019-04-01T05:04:13.924Z,71.66
2019-04-01T05:09:08.507Z,72.71
2019-04-01T05:14:03.089Z,72.35
2019-04-01T05:18:57.682Z,72.95
2019-04-01T05:23:54.733Z,72.63
2019-04-01T05:28:51.520Z,71.37
2019-04-01T05:33:55.314Z,70.45
2019-04-01T05:38:44.337Z,68.51
2019-04-01T05:43:39.140Z,69.41
2019-04-01T05:48:33.866Z,64.94
2019-04-01T05:53:28.658Z,64.90
2019-04-01T05:58:23.618Z,62.39
2019-04-01T06:03:19.336Z,60.56
2019-04-01T06:08:14.080Z,59.34
2019-04-01T06:13:08.811Z,59.70
2019-04-01T06:18:03.510Z,58.34
2019-04-01T06:22:58.174Z,57.42
2019-04-01T06:27:52.740Z,57.60
2019-04-01T06:32:48.145Z,58.89
2019-04-01T06:37:43.058Z,58.91
2019-04-01T06:42:37.719Z,59.65
2019-04-01T06:47:32.393Z,60.83
2019-04-01T06:52:26.983Z,61.30
2019-04-01T06:57:21.656Z,60.88
2019-04-01T07:02:16.240Z,60.90
2019-04-01T07:07:18.746Z,62.57
2019-04-01T07:12:09.338Z,61.91
2019-04-01T07:17:05.010Z,62.39
2019-04-01T07:22:00.141Z,63.79
2019-04-01T07:26:55.671Z,63.05
2019-04-01T07:31:51.803Z,61.57
2019-04-01T07:36:49.170Z,60.90
2019-04-01T07:41:44.182Z,61.61
2019-04-01T07:46:38.795Z,61.00
2019-04-01T07:51:38.446Z,60.92
2019-04-01T07:56:38.657Z,59.89
2019-04-01T08:01:38.605Z,60.56
2019-04-01T08:06:33.337Z,60.00
2019-04-01T08:11:32.527Z,60.72
2019-04-01T08:16:33.158Z,60.64
2019-04-01T08:21:28.370Z,60.75
2019-04-01T08:26:24.670Z,60.65
2019-04-01T08:31:19.719Z,60.42
2019-04-01T08:36:14.461Z,60.59
2019-04-01T08:41:09.199Z,60.02
2019-04-01T08:46:04.020Z,59.68
2019-04-01T08:51:04.661Z,58.11
2019-04-01T08:56:02.183Z,58.49
2019-04-01T09:00:57.054Z,57.70
2019-04-01T09:05:53.840Z,57.19
2019-04-01T09:10:48.716Z,56.72
2019-04-01T09:15:44.687Z,56.89
2019-04-01T09:20:39.295Z,56.11
2019-04-01T09:25:33.894Z,56.85
2019-04-01T09:30:28.624Z,55.75
2019-04-01T09:35:23.344Z,55.40
2019-04-01T09:40:18.254Z,54.95
2019-04-01T09:45:13.088Z,54.58
2019-04-01T09:50:09.248Z,54.41
2019-04-01T09:55:06.148Z,54.49
2019-04-01T10:00:00.539Z,53.90
2019-04-01T10:04:55.135Z,53.95
2019-04-01T10:09:50.234Z,53.55
2019-04-01T10:14:44.794Z,53.33
2019-04-01T10:19:40.365Z,53.25
2019-04-01T10:24:35.047Z,52.46
2019-04-01T10:29:29.699Z,51.25
2019-04-01T10:34:24.373Z,52.04
2019-04-01T10:39:19.062Z,52.71
2019-04-01T10:44:14.550Z,52.73
2019-04-01T10:49:09.230Z,52.91
2019-04-01T10:54:10.977Z,52.31
2019-04-01T10:59:06.851Z,53.34
2019-04-01T11:04:02.905Z,53.50
2019-04-01T11:08:57.623Z,52.86
2019-04-01T11:13:53.902Z,52.28
2019-04-01T11:18:48.843Z,52.18
2019-04-01T11:23:44.683Z,52.29
2019-04-01T11:28:39.281Z,52.55
2019-04-01T11:33:35.480Z,51.13
2019-04-01T11:38:30.118Z,51.68
2019-04-01T11:43:24.722Z,52.67
2019-04-01T11:48:22.983Z,52.14
2019-04-01T11:53:17.977Z,51.36
2019-04-01T11:58:12.731Z,50.75
2019-04-01T12:03:07.415Z,52.08
2019-04-01T12:08:02.561Z,51.34
2019-04-01T12:12:57.186Z,50.27
2019-04-01T12:17:53.452Z,49.84
2019-04-01T12:22:48.066Z,48.92
2019-04-01T12:27:42.740Z,49.71
2019-04-01T12:32:39.579Z,49.74
2019-04-01T12:37:34.220Z,49.16
2019-04-01T12:42:28.971Z,48.92
2019-04-01T12:47:24.624Z,48.46
2019-04-01T12:52:20.749Z,48.08
2019-04-01T12:57:18.759Z,47.90
2019-04-01T13:02:12.186Z,47.30
2019-04-01T13:07:07.075Z,47.97
2019-04-01T13:12:01.730Z,47.47
2019-04-01T13:16:56.425Z,47.36
2019-04-01T13:21:51.701Z,47.14
2019-04-01T13:26:46.430Z,46.43
2019-04-01T13:31:41.033Z,46.51
2019-04-01T13:36:35.638Z,45.79
2019-04-01T13:41:41.776Z,45.23
2019-04-01T13:46:26.775Z,45.55
2019-04-01T13:51:21.496Z,45.28
2019-04-01T13:56:16.293Z,44.62
2019-04-01T14:01:11.061Z,44.46
2019-04-01T14:06:05.929Z,44.05
2019-04-01T14:11:00.678Z,43.57
2019-04-01T14:15:57.027Z,43.87
2019-04-01T14:20:53.000Z,43.62
2019-04-01T14:25:49.183Z,43.83
2019-04-01T14:30:52.516Z,43.65
2019-04-01T14:35:54.068Z,43.50
2019-04-01T14:40:51.817Z,43.20
2019-04-01T14:45:50.193Z,43.78
2019-04-01T14:51:04.538Z,43.58
2019-04-01T14:56:04.203Z,42.64
2019-04-01T15:01:01.250Z,43.41
2019-04-01T15:06:04.281Z,43.22
2019-04-01T15:11:04.585Z,42.96
2019-04-01T15:16:02.225Z,42.69
2019-04-01T15:20:57.757Z,41.81
2019-04-01T15:25:54.694Z,42.67
2019-04-01T15:31:01.408Z,42.36
2019-04-01T15:35:59.417Z,41.78
2019-04-01T15:40:58.126Z,41.31
2019-04-01T15:45:51.214Z,41.84
2019-04-01T15:50:45.991Z,42.17
2019-04-01T15:55:40.871Z,42.92
2019-04-01T16:00:35.648Z,42.35
2019-04-01T16:05:30.620Z,42.25
2019-04-01T16:10:29.058Z,43.04
2019-04-01T16:15:21.893Z,43.04
2019-04-01T16:20:16.895Z,43.27
2019-04-01T16:25:13.175Z,42.97
2019-04-01T16:30:09.801Z,43.70
2019-04-01T16:35:06.784Z,43.82
2019-04-01T16:40:01.494Z,43.97
2019-04-01T16:44:56.363Z,43.99
2019-04-01T16:49:51.117Z,44.20
2019-04-01T16:54:59.281Z,44.54
2019-04-01T16:59:54.279Z,45.01
2019-04-01T17:04:49.345Z,45.37
2019-04-01T17:09:44.708Z,45.98
2019-04-01T17:14:39.797Z,46.59
2019-04-01T17:19:34.783Z,47.06
2019-04-01T17:24:30.016Z,47.31
2019-04-01T17:29:25.853Z,48.03
2019-04-01T17:34:31.168Z,48.48
2019-04-01T17:39:25.916Z,48.74
2019-04-01T17:44:20.778Z,49.37
2019-04-01T17:49:15.502Z,50.05
2019-04-01T17:54:10.245Z,50.71
2019-04-01T17:59:05.104Z,51.29
2019-04-01T18:03:59.842Z,51.67
2019-04-01T18:08:54.466Z,52.34
2019-04-01T18:13:49.245Z,52.91
2019-04-01T18:18:44.888Z,53.26
2019-04-01T18:23:39.622Z,53.31
2019-04-01T18:28:34.401Z,53.73
2019-04-01T18:33:30.246Z,54.83
2019-04-01T18:38:25.746Z,55.34
2019-04-01T18:43:20.638Z,55.54
2019-04-01T18:48:15.431Z,56.23
2019-04-01T18:53:10.251Z,56.50
2019-04-01T18:58:05.024Z,56.47
2019-04-01T19:02:59.824Z,56.86
2019-04-01T19:07:54.692Z,57.45
2019-04-01T19:12:49.547Z,57.92
2019-04-01T19:17:44.488Z,58.11
2019-04-01T19:22:39.282Z,58.61
2019-04-01T19:27:34.054Z,58.90
2019-04-01T19:32:28.872Z,59.03
2019-04-01T19:37:23.729Z,59.67
2019-04-01T19:42:18.532Z,59.91
2019-04-01T19:47:13.301Z,60.15
2019-04-01T19:52:09.738Z,60.00
2019-04-01T19:57:05.938Z,60.23
2019-04-01T20:02:00.903Z,60.83
2019-04-01T20:06:55.742Z,61.02
2019-04-01T20:11:50.572Z,61.65
2019-04-01T20:16:47.032Z,62.85
2019-04-01T20:21:41.974Z,63.26
2019-04-01T20:26:36.742Z,63.35
2019-04-01T20:31:31.475Z,63.75
2019-04-01T20:36:28.704Z,63.12
2019-04-01T20:41:22.691Z,63.64
2019-04-01T20:46:17.399Z,64.29
2019-04-01T20:51:12.189Z,64.85
2019-04-01T20:56:07.123Z,65.18
2019-04-01T21:01:02.003Z,66.02
2019-04-01T21:05:56.712Z,66.88
2019-04-01T21:10:51.440Z,67.00
2019-04-01T21:15:46.237Z,67.30
2019-04-01T21:20:41.349Z,68.47
2019-04-01T21:25:36.973Z,68.71
2019-04-01T21:30:31.753Z,68.17
2019-04-01T21:35:26.559Z,68.38
2019-04-01T21:40:21.408Z,68.06
2019-04-01T21:45:17.814Z,68.21
2019-04-01T21:50:12.949Z,67.95
2019-04-01T21:55:08.653Z,68.48
2019-04-01T22:00:05.069Z,68.98
2019-04-01T22:04:59.881Z,70.10
2019-04-01T22:09:54.759Z,70.68
2019-04-01T22:14:49.439Z,70.76
2019-04-01T22:19:44.234Z,71.59
2019-04-01T22:24:39.038Z,72.30
2019-04-01T22:29:33.873Z,72.60
2019-04-01T22:34:28.615Z,73.08
2019-04-01T22:39:27.420Z,73.57
2019-04-01T22:44:19.894Z,73.42
2019-04-01T22:49:14.680Z,74.01
2019-04-01T22:54:09.542Z,74.30
2019-04-01T22:59:04.367Z,74.42
2019-04-01T23:03:59.100Z,74.46
2019-04-01T23:08:53.822Z,74.56
2019-04-01T23:13:48.804Z,75.38
2019-04-01T23:18:43.540Z,75.00
2019-04-01T23:23:38.166Z,74.78
2019-04-01T23:28:32.776Z,74.84
2019-04-01T23:33:27.662Z,75.45
2019-04-01T23:38:22.455Z,75.61
2019-04-01T23:43:17.189Z,76.43
2019-04-01T23:48:11.902Z,76.24
2019-04-01T23:53:06.779Z,76.55
2019-04-01T23:58:01.551Z,76.52
